Main page
METAR-TAF:

METAR-TAF

Airports :

Phrae Airport

Phrae, Thailand

latitude: 18-10N, longitude: 100-10E, elevation: 161 m

Current weather observation

The report was made 52 minutes ago, at 09:00 UTC
Wind 9 kt from the South/Southwest, varying between South and Southwest
Temperature 35°C
Humidity 39%
Pressure 1007 hPa
Visibility 10 km or more
Few clouds at a height of 4500 ft

METAR: VTCP 030900Z 20009KT 170V230 9999 FEW045 35/19 Q1007 NOSIG

Time: 16:52 (09:52 UTC)

Forecast

The report was made 4 hours and 52 minutes ago, at 05:00 UTC
Forecast valid from 03 at 06 UTC to 04 at 06 UTC
Wind 7 kt from the South/Southwest
Visibility 10 km or more
Few clouds at a height of 4500 ft
Becoming
from 03 at 22 UTC to 03 at 24 UTC
Wind kt from the North
Visibility: 4000 m
mist
Becoming
from 04 at 04 UTC to 04 at 06 UTC
Wind 5 kt from the South/Southwest
Visibility 10 km or more

TAF: VTCP 030500Z 0306/0406 20007KT 9999 FEW045 BECMG 0322/0324 00000KT 4000 BR BECMG 0404/0406 21005KT 9999 NSW

Weather observations and forecasts of more than 4000 airports (METAR and TAF reports).

The available stations are represented by yellow and red dots on the map.

Hover mouse over dot to see the name of the station.

Then click to see weather observations and forecasts.

To change the map : click on the green buttons with a black cross to zoom in, on the green button with a dash to zoom out, or on the green arrows for adjacent maps.


METAR-TAF: